sensor_id;sensor_type;location;lat;lon;timestamp;temperature;humidity
19365;DHT22;9818;48.382;10.850;2022-07-23T00:00:49;24.00;99.90
19365;DHT22;9818;48.382;10.850;2022-07-23T00:03:18;24.00;99.90
19365;DHT22;9818;48.382;10.850;2022-07-23T00:05:46;24.00;99.90
19365;DHT22;9818;48.382;10.850;2022-07-23T00:08:17;24.00;99.90
19365;DHT22;9818;48.382;10.850;2022-07-23T00:10:46;24.10;99.90
19365;DHT22;9818;48.382;10.850;2022-07-23T00:13:14;24.00;99.90
19365;DHT22;9818;48.382;10.850;2022-07-23T00:15:43;24.00;99.90
19365;DHT22;9818;48.382;10.850;2022-07-23T00:18:11;24.00;99.90
19365;DHT22;9818;48.382;10.850;2022-07-23T00:20:39;24.00;99.90
19365;DHT22;9818;48.382;10.850;2022-07-23T00:23:08;23.90;99.90
19365;DHT22;9818;48.382;10.850;2022-07-23T00:25:39;24.00;99.90
19365;DHT22;9818;48.382;10.850;2022-07-23T00:28:08;23.90;99.90
19365;DHT22;9818;48.382;10.850;2022-07-23T00:30:36;23.90;99.90
19365;DHT22;9818;48.382;10.850;2022-07-23T00:33:05;23.90;99.90
19365;DHT22;9818;48.382;10.850;2022-07-23T00:35:35;24.00;99.90
19365;DHT22;9818;48.382;10.850;2022-07-23T00:38:06;24.10;99.90
19365;DHT22;9818;48.382;10.850;2022-07-23T00:40:35;24.20;99.90
19365;DHT22;9818;48.382;10.850;2022-07-23T00:43:06;24.20;99.90
19365;DHT22;9818;48.382;10.850;2022-07-23T00:45:35;24.20;99.90
19365;DHT22;9818;48.382;10.850;2022-07-23T00:48:05;24.30;99.90
19365;DHT22;9818;48.382;10.850;2022-07-23T00:50:33;24.30;99.90
19365;DHT22;9818;48.382;10.850;2022-07-23T00:53:02;24.20;99.90
19365;DHT22;9818;48.382;10.850;2022-07-23T00:55:30;23.90;99.90
19365;DHT22;9818;48.382;10.850;2022-07-23T00:57:59;23.60;99.90
19365;DHT22;9818;48.382;10.850;2022-07-23T01:00:30;23.30;99.90
19365;DHT22;9818;48.382;10.850;2022-07-23T01:02:59;23.10;99.90
19365;DHT22;9818;48.382;10.850;2022-07-23T01:05:27;22.90;99.90
19365;DHT22;9818;48.382;10.850;2022-07-23T01:07:56;22.80;99.90
19365;DHT22;9818;48.382;10.850;2022-07-23T01:21:27;21.60;99.90
19365;DHT22;9818;48.382;10.850;2022-07-23T01:24:00;21.30;99.90
19365;DHT22;9818;48.382;10.850;2022-07-23T01:26:29;21.10;99.90
19365;DHT22;9818;48.382;10.850;2022-07-23T01:28:58;20.80;99.90
19365;DHT22;9818;48.382;10.850;2022-07-23T01:31:26;20.50;99.90
19365;DHT22;9818;48.382;10.850;2022-07-23T01:33:55;20.30;99.90
19365;DHT22;9818;48.382;10.850;2022-07-23T01:36:23;20.00;99.90
19365;DHT22;9818;48.382;10.850;2022-07-23T01:38:52;19.60;99.90
19365;DHT22;9818;48.382;10.850;2022-07-23T01:41:23;19.20;99.90
19365;DHT22;9818;48.382;10.850;2022-07-23T01:43:52;19.00;99.90
19365;DHT22;9818;48.382;10.850;2022-07-23T01:46:21;18.90;99.90
19365;DHT22;9818;48.382;10.850;2022-07-23T01:48:50;18.80;99.90
19365;DHT22;9818;48.382;10.850;2022-07-23T01:51:18;18.80;99.90
19365;DHT22;9818;48.382;10.850;2022-07-23T01:53:47;18.70;99.90
19365;DHT22;9818;48.382;10.850;2022-07-23T01:56:15;18.60;99.90
19365;DHT22;9818;48.382;10.850;2022-07-23T01:58:48;18.60;99.90
19365;DHT22;9818;48.382;10.850;2022-07-23T02:01:17;18.60;99.90
19365;DHT22;9818;48.382;10.850;2022-07-23T02:03:45;18.50;99.90
19365;DHT22;9818;48.382;10.850;2022-07-23T02:06:14;18.40;99.90
19365;DHT22;9818;48.382;10.850;2022-07-23T02:08:43;18.40;99.90
19365;DHT22;9818;48.382;10.850;2022-07-23T02:11:12;18.40;99.90
19365;DHT22;9818;48.382;10.850;2022-07-23T02:13:41;18.30;99.90
19365;DHT22;9818;48.382;10.850;2022-07-23T02:16:12;18.30;99.90
19365;DHT22;9818;48.382;10.850;2022-07-23T02:18:41;18.30;99.90
19365;DHT22;9818;48.382;10.850;2022-07-23T02:21:11;18.30;99.90
19365;DHT22;9818;48.382;10.850;2022-07-23T02:23:40;18.40;99.90
19365;DHT22;9818;48.382;10.850;2022-07-23T02:26:09;18.30;99.90
19365;DHT22;9818;48.382;10.850;2022-07-23T02:28:38;18.30;99.90
19365;DHT22;9818;48.382;10.850;2022-07-23T02:31:06;18.30;99.90
19365;DHT22;9818;48.382;10.850;2022-07-23T02:33:38;18.40;99.90
19365;DHT22;9818;48.382;10.850;2022-07-23T02:36:07;18.40;99.90
19365;DHT22;9818;48.382;10.850;2022-07-23T02:38:36;18.40;99.90
19365;DHT22;9818;48.382;10.850;2022-07-23T02:41:05;18.50;99.90
19365;DHT22;9818;48.382;10.850;2022-07-23T02:43:34;18.40;99.90
19365;DHT22;9818;48.382;10.850;2022-07-23T02:46:02;18.40;99.90
19365;DHT22;9818;48.382;10.850;2022-07-23T02:48:31;18.40;99.90
19365;DHT22;9818;48.382;10.850;2022-07-23T02:51:03;18.40;99.90
19365;DHT22;9818;48.382;10.850;2022-07-23T02:53:32;18.50;99.90
19365;DHT22;9818;48.382;10.850;2022-07-23T02:56:00;18.40;99.90
19365;DHT22;9818;48.382;10.850;2022-07-23T02:58:29;18.40;99.90
19365;DHT22;9818;48.382;10.850;2022-07-23T03:00:58;18.40;99.90
19365;DHT22;9818;48.382;10.850;2022-07-23T03:03:27;18.40;99.90
19365;DHT22;9818;48.382;10.850;2022-07-23T03:05:56;18.40;99.90
19365;DHT22;9818;48.382;10.850;2022-07-23T03:08:27;18.40;99.90
19365;DHT22;9818;48.382;10.850;2022-07-23T03:10:56;18.50;99.90
19365;DHT22;9818;48.382;10.850;2022-07-23T03:13:25;18.50;99.90
19365;DHT22;9818;48.382;10.850;2022-07-23T03:15:55;18.40;99.90
19365;DHT22;9818;48.382;10.850;2022-07-23T03:18:23;18.40;99.90
19365;DHT22;9818;48.382;10.850;2022-07-23T03:20:52;18.40;99.90
19365;DHT22;9818;48.382;10.850;2022-07-23T03:23:21;18.40;99.90
19365;DHT22;9818;48.382;10.850;2022-07-23T03:25:53;18.30;99.90
19365;DHT22;9818;48.382;10.850;2022-07-23T03:28:22;18.30;99.90
19365;DHT22;9818;48.382;10.850;2022-07-23T03:30:51;18.30;99.90
19365;DHT22;9818;48.382;10.850;2022-07-23T03:33:21;18.30;99.90
19365;DHT22;9818;48.382;10.850;2022-07-23T03:35:50;18.30;99.90
19365;DHT22;9818;48.382;10.850;2022-07-23T03:38:19;18.30;99.90
19365;DHT22;9818;48.382;10.850;2022-07-23T03:40:48;18.30;99.90
19365;DHT22;9818;48.382;10.850;2022-07-23T03:43:20;18.40;99.90
19365;DHT22;9818;48.382;10.850;2022-07-23T03:45:50;18.40;99.90
19365;DHT22;9818;48.382;10.850;2022-07-23T03:48:18;18.50;99.90
19365;DHT22;9818;48.382;10.850;2022-07-23T03:50:47;18.50;99.90
19365;DHT22;9818;48.382;10.850;2022-07-23T03:53:16;18.50;99.90
19365;DHT22;9818;48.382;10.850;2022-07-23T03:55:45;18.50;99.90
19365;DHT22;9818;48.382;10.850;2022-07-23T03:58:13;18.60;99.90
19365;DHT22;9818;48.382;10.850;2022-07-23T04:00:45;18.60;99.90
19365;DHT22;9818;48.382;10.850;2022-07-23T04:03:13;18.60;99.90
19365;DHT22;9818;48.382;10.850;2022-07-23T04:05:43;18.70;99.90
19365;DHT22;9818;48.382;10.850;2022-07-23T04:08:12;18.60;99.90
19365;DHT22;9818;48.382;10.850;2022-07-23T04:10:41;18.60;99.90
19365;DHT22;9818;48.382;10.850;2022-07-23T04:13:09;18.60;99.90
19365;DHT22;9818;48.382;10.850;2022-07-23T04:15:38;18.60;99.90
19365;DHT22;9818;48.382;10.850;2022-07-23T04:18:09;18.70;99.90
19365;DHT22;9818;48.382;10.850;2022-07-23T04:20:38;18.60;99.90
19365;DHT22;9818;48.382;10.850;2022-07-23T04:23:07;18.70;99.90
19365;DHT22;9818;48.382;10.850;2022-07-23T04:25:36;18.70;99.90
19365;DHT22;9818;48.382;10.850;2022-07-23T04:28:04;18.70;99.90
19365;DHT22;9818;48.382;10.850;2022-07-23T04:30:33;18.70;99.90
19365;DHT22;9818;48.382;10.850;2022-07-23T04:33:02;18.70;99.90
19365;DHT22;9818;48.382;10.850;2022-07-23T04:35:35;18.70;99.90
19365;DHT22;9818;48.382;10.850;2022-07-23T04:38:03;18.80;99.90
19365;DHT22;9818;48.382;10.850;2022-07-23T04:40:32;18.90;99.90
19365;DHT22;9818;48.382;10.850;2022-07-23T04:43:01;19.10;99.90
19365;DHT22;9818;48.382;10.850;2022-07-23T04:45:30;19.30;99.90
19365;DHT22;9818;48.382;10.850;2022-07-23T04:47:59;19.40;99.90
19365;DHT22;9818;48.382;10.850;2022-07-23T04:50:27;19.50;99.90
19365;DHT22;9818;48.382;10.850;2022-07-23T04:52:58;19.50;99.90
19365;DHT22;9818;48.382;10.850;2022-07-23T04:55:28;19.60;99.90
19365;DHT22;9818;48.382;10.850;2022-07-23T04:57:56;19.80;99.90
19365;DHT22;9818;48.382;10.850;2022-07-23T05:00:25;19.80;99.90
19365;DHT22;9818;48.382;10.850;2022-07-23T05:02:53;19.80;99.90
19365;DHT22;9818;48.382;10.850;2022-07-23T05:05:22;19.90;99.90
19365;DHT22;9818;48.382;10.850;2022-07-23T05:07:50;19.80;99.90
19365;DHT22;9818;48.382;10.850;2022-07-23T05:10:21;19.80;99.90
19365;DHT22;9818;48.382;10.850;2022-07-23T05:12:50;19.90;99.90
19365;DHT22;9818;48.382;10.850;2022-07-23T05:15:19;20.00;99.90
19365;DHT22;9818;48.382;10.850;2022-07-23T05:17:47;20.20;99.90
19365;DHT22;9818;48.382;10.850;2022-07-23T05:20:16;20.30;99.90
19365;DHT22;9818;48.382;10.850;2022-07-23T05:22:44;20.50;99.90
19365;DHT22;9818;48.382;10.850;2022-07-23T05:25:13;20.60;99.90
19365;DHT22;9818;48.382;10.850;2022-07-23T05:27:45;20.70;99.90
19365;DHT22;9818;48.382;10.850;2022-07-23T05:30:14;21.00;99.90
19365;DHT22;9818;48.382;10.850;2022-07-23T05:32:42;20.70;99.90
19365;DHT22;9818;48.382;10.850;2022-07-23T05:35:11;20.80;99.90
19365;DHT22;9818;48.382;10.850;2022-07-23T05:37:40;20.70;99.90
19365;DHT22;9818;48.382;10.850;2022-07-23T05:40:10;20.80;99.90
19365;DHT22;9818;48.382;10.850;2022-07-23T05:42:40;20.80;99.90
19365;DHT22;9818;48.382;10.850;2022-07-23T05:45:12;20.80;99.90
19365;DHT22;9818;48.382;10.850;2022-07-23T05:47:42;20.80;99.90
19365;DHT22;9818;48.382;10.850;2022-07-23T05:50:12;20.90;99.90
19365;DHT22;9818;48.382;10.850;2022-07-23T05:52:41;20.80;99.90
19365;DHT22;9818;48.382;10.850;2022-07-23T05:55:11;20.80;99.90
19365;DHT22;9818;48.382;10.850;2022-07-23T05:57:41;20.80;99.90
19365;DHT22;9818;48.382;10.850;2022-07-23T06:00:13;20.80;99.90
19365;DHT22;9818;48.382;10.850;2022-07-23T06:02:42;20.80;99.90
19365;DHT22;9818;48.382;10.850;2022-07-23T06:05:11;20.90;99.90
19365;DHT22;9818;48.382;10.850;2022-07-23T06:07:39;21.00;99.90
19365;DHT22;9818;48.382;10.850;2022-07-23T06:10:09;20.90;99.90
19365;DHT22;9818;48.382;10.850;2022-07-23T06:12:38;20.90;99.90
19365;DHT22;9818;48.382;10.850;2022-07-23T06:15:08;20.80;99.90
19365;DHT22;9818;48.382;10.850;2022-07-23T06:17:40;20.80;99.90
19365;DHT22;9818;48.382;10.850;2022-07-23T06:20:09;20.70;99.90
19365;DHT22;9818;48.382;10.850;2022-07-23T06:22:38;20.70;99.90
19365;DHT22;9818;48.382;10.850;2022-07-23T06:25:08;20.90;99.90
19365;DHT22;9818;48.382;10.850;2022-07-23T06:27:37;20.90;99.90
19365;DHT22;9818;48.382;10.850;2022-07-23T06:30:07;20.90;99.90
19365;DHT22;9818;48.382;10.850;2022-07-23T06:32:39;20.90;99.90
19365;DHT22;9818;48.382;10.850;2022-07-23T06:35:08;20.90;99.90
19365;DHT22;9818;48.382;10.850;2022-07-23T06:37:37;21.10;99.90
19365;DHT22;9818;48.382;10.850;2022-07-23T06:40:06;21.30;99.90
19365;DHT22;9818;48.382;10.850;2022-07-23T06:42:35;21.40;99.90
19365;DHT22;9818;48.382;10.850;2022-07-23T06:45:05;21.50;99.90
19365;DHT22;9818;48.382;10.850;2022-07-23T06:47:34;21.50;99.90
19365;DHT22;9818;48.382;10.850;2022-07-23T06:50:05;21.30;99.90
19365;DHT22;9818;48.382;10.850;2022-07-23T06:52:34;21.10;99.90
19365;DHT22;9818;48.382;10.850;2022-07-23T06:55:03;21.10;99.90
19365;DHT22;9818;48.382;10.850;2022-07-23T06:57:31;21.00;99.90
19365;DHT22;9818;48.382;10.850;2022-07-23T07:00:00;21.00;99.90
19365;DHT22;9818;48.382;10.850;2022-07-23T07:02:28;20.90;99.90
19365;DHT22;9818;48.382;10.850;2022-07-23T07:04:57;21.10;99.90
19365;DHT22;9818;48.382;10.850;2022-07-23T07:07:28;21.30;99.90
19365;DHT22;9818;48.382;10.850;2022-07-23T07:09:56;21.40;99.90
19365;DHT22;9818;48.382;10.850;2022-07-23T07:12:25;21.30;99.90
19365;DHT22;9818;48.382;10.850;2022-07-23T07:14:53;21.30;99.90
19365;DHT22;9818;48.382;10.850;2022-07-23T07:17:22;21.40;99.90
19365;DHT22;9818;48.382;10.850;2022-07-23T07:19:51;21.60;99.90
19365;DHT22;9818;48.382;10.850;2022-07-23T07:22:19;21.50;99.90
19365;DHT22;9818;48.382;10.850;2022-07-23T07:24:50;21.40;99.90
19365;DHT22;9818;48.382;10.850;2022-07-23T07:27:19;21.70;99.90
19365;DHT22;9818;48.382;10.850;2022-07-23T07:29:47;22.00;99.90
19365;DHT22;9818;48.382;10.850;2022-07-23T07:32:16;22.10;99.90
19365;DHT22;9818;48.382;10.850;2022-07-23T07:34:45;22.00;99.90
19365;DHT22;9818;48.382;10.850;2022-07-23T07:37:13;22.00;99.90
19365;DHT22;9818;48.382;10.850;2022-07-23T07:39:42;22.00;99.90
19365;DHT22;9818;48.382;10.850;2022-07-23T07:42:14;22.30;99.90
19365;DHT22;9818;48.382;10.850;2022-07-23T07:44:42;22.30;99.90
19365;DHT22;9818;48.382;10.850;2022-07-23T07:47:11;22.50;99.90
19365;DHT22;9818;48.382;10.850;2022-07-23T07:49:41;22.80;99.90
19365;DHT22;9818;48.382;10.850;2022-07-23T07:52:10;23.10;99.90
19365;DHT22;9818;48.382;10.850;2022-07-23T07:54:38;23.20;99.90
19365;DHT22;9818;48.382;10.850;2022-07-23T07:57:08;23.40;99.90
19365;DHT22;9818;48.382;10.850;2022-07-23T07:59:39;23.30;99.90
19365;DHT22;9818;48.382;10.850;2022-07-23T08:02:08;23.30;99.90
19365;DHT22;9818;48.382;10.850;2022-07-23T08:04:37;23.30;99.90
19365;DHT22;9818;48.382;10.850;2022-07-23T08:07:05;23.40;99.90
19365;DHT22;9818;48.382;10.850;2022-07-23T08:09:34;23.50;99.90
19365;DHT22;9818;48.382;10.850;2022-07-23T08:12:02;23.40;99.90
19365;DHT22;9818;48.382;10.850;2022-07-23T08:14:31;23.40;99.90
19365;DHT22;9818;48.382;10.850;2022-07-23T08:17:02;23.80;99.90
19365;DHT22;9818;48.382;10.850;2022-07-23T08:19:30;24.30;99.90
19365;DHT22;9818;48.382;10.850;2022-07-23T08:21:59;25.20;99.90
19365;DHT22;9818;48.382;10.850;2022-07-23T08:24:27;26.10;99.90
19365;DHT22;9818;48.382;10.850;2022-07-23T08:26:56;27.50;99.90
19365;DHT22;9818;48.382;10.850;2022-07-23T08:29:24;28.70;99.90
19365;DHT22;9818;48.382;10.850;2022-07-23T08:31:53;31.40;99.90
19365;DHT22;9818;48.382;10.850;2022-07-23T08:34:24;32.20;99.90
19365;DHT22;9818;48.382;10.850;2022-07-23T08:36:53;33.00;99.90
19365;DHT22;9818;48.382;10.850;2022-07-23T08:39:22;33.60;99.90
19365;DHT22;9818;48.382;10.850;2022-07-23T08:41:50;32.80;99.90
19365;DHT22;9818;48.382;10.850;2022-07-23T08:44:18;34.60;99.90
19365;DHT22;9818;48.382;10.850;2022-07-23T08:46:47;34.00;99.90
19365;DHT22;9818;48.382;10.850;2022-07-23T08:49:16;33.00;99.90
19365;DHT22;9818;48.382;10.850;2022-07-23T08:51:47;33.10;99.90
19365;DHT22;9818;48.382;10.850;2022-07-23T08:54:17;34.10;99.90
19365;DHT22;9818;48.382;10.850;2022-07-23T08:56:46;34.00;99.90
19365;DHT22;9818;48.382;10.850;2022-07-23T08:59:15;33.80;99.90
19365;DHT22;9818;48.382;10.850;2022-07-23T09:01:43;34.40;99.90
19365;DHT22;9818;48.382;10.850;2022-07-23T09:04:12;34.10;99.90
19365;DHT22;9818;48.382;10.850;2022-07-23T09:06:41;34.40;99.90
19365;DHT22;9818;48.382;10.850;2022-07-23T09:09:20;35.80;99.90
19365;DHT22;9818;48.382;10.850;2022-07-23T09:12:02;35.70;99.90
19365;DHT22;9818;48.382;10.850;2022-07-23T09:14:39;36.00;99.90
19365;DHT22;9818;48.382;10.850;2022-07-23T09:17:08;35.30;99.90
19365;DHT22;9818;48.382;10.850;2022-07-23T09:19:37;34.50;99.90
19365;DHT22;9818;48.382;10.850;2022-07-23T09:22:18;34.60;99.90
19365;DHT22;9818;48.382;10.850;2022-07-23T09:30:17;35.60;99.90
19365;DHT22;9818;48.382;10.850;2022-07-23T09:35:42;34.60;99.90
19365;DHT22;9818;48.382;10.850;2022-07-23T09:38:11;35.80;99.90
19365;DHT22;9818;48.382;10.850;2022-07-23T09:40:39;36.50;99.90
19365;DHT22;9818;48.382;10.850;2022-07-23T09:43:08;36.10;99.90
19365;DHT22;9818;48.382;10.850;2022-07-23T09:45:39;35.00;99.90
19365;DHT22;9818;48.382;10.850;2022-07-23T09:48:11;33.90;99.90
19365;DHT22;9818;48.382;10.850;2022-07-23T09:50:40;33.80;99.90
19365;DHT22;9818;48.382;10.850;2022-07-23T09:53:09;33.20;99.90
19365;DHT22;9818;48.382;10.850;2022-07-23T09:55:37;33.00;99.90
19365;DHT22;9818;48.382;10.850;2022-07-23T09:58:06;33.20;99.90
19365;DHT22;9818;48.382;10.850;2022-07-23T10:00:40;33.00;99.90
19365;DHT22;9818;48.382;10.850;2022-07-23T10:03:10;34.20;99.90
19365;DHT22;9818;48.382;10.850;2022-07-23T10:05:39;34.40;99.90
19365;DHT22;9818;48.382;10.850;2022-07-23T10:08:10;34.30;99.90
19365;DHT22;9818;48.382;10.850;2022-07-23T10:10:39;33.80;99.90
19365;DHT22;9818;48.382;10.850;2022-07-23T10:13:08;34.40;99.90
19365;DHT22;9818;48.382;10.850;2022-07-23T10:15:54;34.90;99.90
19365;DHT22;9818;48.382;10.850;2022-07-23T10:18:22;34.40;99.90
19365;DHT22;9818;48.382;10.850;2022-07-23T10:20:51;34.70;99.90
19365;DHT22;9818;48.382;10.850;2022-07-23T10:23:22;34.70;99.90
19365;DHT22;9818;48.382;10.850;2022-07-23T10:25:55;35.10;99.90
19365;DHT22;9818;48.382;10.850;2022-07-23T10:28:33;34.90;99.90
19365;DHT22;9818;48.382;10.850;2022-07-23T10:31:14;34.70;99.90
19365;DHT22;9818;48.382;10.850;2022-07-23T10:33:49;34.40;99.90
19365;DHT22;9818;48.382;10.850;2022-07-23T10:36:23;34.90;99.90
19365;DHT22;9818;48.382;10.850;2022-07-23T10:38:57;35.20;99.90
19365;DHT22;9818;48.382;10.850;2022-07-23T10:41:32;35.90;98.70
19365;DHT22;9818;48.382;10.850;2022-07-23T10:44:08;36.30;96.80
19365;DHT22;9818;48.382;10.850;2022-07-23T10:46:53;38.80;90.00
19365;DHT22;9818;48.382;10.850;2022-07-23T10:49:24;37.00;84.70
19365;DHT22;9818;48.382;10.850;2022-07-23T10:54:36;36.10;93.40
19365;DHT22;9818;48.382;10.850;2022-07-23T10:57:05;36.40;92.80
19365;DHT22;9818;48.382;10.850;2022-07-23T11:02:23;35.10;98.90
19365;DHT22;9818;48.382;10.850;2022-07-23T11:04:52;35.20;97.50
19365;DHT22;9818;48.382;10.850;2022-07-23T11:07:21;34.70;97.90
19365;DHT22;9818;48.382;10.850;2022-07-23T11:09:49;33.90;99.90
19365;DHT22;9818;48.382;10.850;2022-07-23T11:12:32;33.60;99.90
19365;DHT22;9818;48.382;10.850;2022-07-23T11:15:01;34.50;99.90
19365;DHT22;9818;48.382;10.850;2022-07-23T11:17:34;34.00;99.90
19365;DHT22;9818;48.382;10.850;2022-07-23T11:20:13;34.00;99.90
19365;DHT22;9818;48.382;10.850;2022-07-23T11:22:46;33.60;99.90
19365;DHT22;9818;48.382;10.850;2022-07-23T11:25:28;34.20;99.90
19365;DHT22;9818;48.382;10.850;2022-07-23T11:28:07;34.50;99.90
19365;DHT22;9818;48.382;10.850;2022-07-23T11:30:40;34.20;99.90
19365;DHT22;9818;48.382;10.850;2022-07-23T11:33:18;33.80;99.90
19365;DHT22;9818;48.382;10.850;2022-07-23T11:35:48;33.30;99.90
19365;DHT22;9818;48.382;10.850;2022-07-23T11:38:18;33.40;99.90
19365;DHT22;9818;48.382;10.850;2022-07-23T11:40:47;33.40;99.90
19365;DHT22;9818;48.382;10.850;2022-07-23T11:43:17;33.40;99.90
19365;DHT22;9818;48.382;10.850;2022-07-23T11:45:46;33.80;99.90
19365;DHT22;9818;48.382;10.850;2022-07-23T11:48:19;34.20;99.90
19365;DHT22;9818;48.382;10.850;2022-07-23T11:50:48;33.30;99.90
19365;DHT22;9818;48.382;10.850;2022-07-23T11:53:21;32.50;99.90
19365;DHT22;9818;48.382;10.850;2022-07-23T11:55:49;32.60;99.90
19365;DHT22;9818;48.382;10.850;2022-07-23T11:58:18;32.80;99.90
19365;DHT22;9818;48.382;10.850;2022-07-23T12:00:47;32.30;99.90
19365;DHT22;9818;48.382;10.850;2022-07-23T12:03:18;32.20;99.90
19365;DHT22;9818;48.382;10.850;2022-07-23T12:05:47;31.80;99.90
19365;DHT22;9818;48.382;10.850;2022-07-23T12:08:16;32.60;99.90
19365;DHT22;9818;48.382;10.850;2022-07-23T12:10:44;33.10;99.90
19365;DHT22;9818;48.382;10.850;2022-07-23T12:13:14;33.70;99.90
19365;DHT22;9818;48.382;10.850;2022-07-23T12:15:44;32.90;99.90
19365;DHT22;9818;48.382;10.850;2022-07-23T12:18:13;32.60;99.90
19365;DHT22;9818;48.382;10.850;2022-07-23T12:20:45;32.10;99.90
19365;DHT22;9818;48.382;10.850;2022-07-23T12:23:14;31.60;99.90
19365;DHT22;9818;48.382;10.850;2022-07-23T12:25:44;31.40;99.90
19365;DHT22;9818;48.382;10.850;2022-07-23T12:28:13;32.20;99.90
19365;DHT22;9818;48.382;10.850;2022-07-23T12:30:43;32.20;99.90
19365;DHT22;9818;48.382;10.850;2022-07-23T12:33:12;32.00;99.90
19365;DHT22;9818;48.382;10.850;2022-07-23T12:35:42;32.30;99.90
19365;DHT22;9818;48.382;10.850;2022-07-23T12:38:14;32.40;99.90
19365;DHT22;9818;48.382;10.850;2022-07-23T12:40:44;33.00;99.90
19365;DHT22;9818;48.382;10.850;2022-07-23T12:43:18;32.90;99.90
19365;DHT22;9818;48.382;10.850;2022-07-23T12:45:47;32.40;99.90
19365;DHT22;9818;48.382;10.850;2022-07-23T12:48:17;32.30;99.90
19365;DHT22;9818;48.382;10.850;2022-07-23T12:50:51;32.70;99.90
19365;DHT22;9818;48.382;10.850;2022-07-23T12:53:24;32.30;99.90
19365;DHT22;9818;48.382;10.850;2022-07-23T12:55:57;32.00;99.90
19365;DHT22;9818;48.382;10.850;2022-07-23T12:58:26;32.00;99.90
19365;DHT22;9818;48.382;10.850;2022-07-23T13:00:56;31.40;99.90
19365;DHT22;9818;48.382;10.850;2022-07-23T13:03:26;31.50;99.90
19365;DHT22;9818;48.382;10.850;2022-07-23T13:05:54;31.00;99.90
19365;DHT22;9818;48.382;10.850;2022-07-23T13:08:26;30.90;99.90
19365;DHT22;9818;48.382;10.850;2022-07-23T13:10:55;30.90;99.90
19365;DHT22;9818;48.382;10.850;2022-07-23T13:13:24;30.90;99.90
19365;DHT22;9818;48.382;10.850;2022-07-23T13:15:52;30.40;99.90
19365;DHT22;9818;48.382;10.850;2022-07-23T13:18:21;29.90;99.90
19365;DHT22;9818;48.382;10.850;2022-07-23T13:20:49;30.50;99.90
19365;DHT22;9818;48.382;10.850;2022-07-23T13:23:18;30.40;99.90
19365;DHT22;9818;48.382;10.850;2022-07-23T13:25:49;29.90;99.90
19365;DHT22;9818;48.382;10.850;2022-07-23T13:28:18;29.80;99.90
19365;DHT22;9818;48.382;10.850;2022-07-23T13:30:47;29.80;99.90
19365;DHT22;9818;48.382;10.850;2022-07-23T13:33:16;29.90;99.90
19365;DHT22;9818;48.382;10.850;2022-07-23T13:35:45;29.70;99.90
19365;DHT22;9818;48.382;10.850;2022-07-23T13:38:13;29.80;99.90
19365;DHT22;9818;48.382;10.850;2022-07-23T13:40:43;30.30;99.90
19365;DHT22;9818;48.382;10.850;2022-07-23T13:43:16;30.50;99.90
19365;DHT22;9818;48.382;10.850;2022-07-23T13:45:45;30.80;99.90
19365;DHT22;9818;48.382;10.850;2022-07-23T13:48:13;30.70;99.90
19365;DHT22;9818;48.382;10.850;2022-07-23T13:50:44;30.30;99.90
19365;DHT22;9818;48.382;10.850;2022-07-23T13:53:14;30.80;99.90
19365;DHT22;9818;48.382;10.850;2022-07-23T13:55:42;30.90;99.90
19365;DHT22;9818;48.382;10.850;2022-07-23T13:58:11;30.80;99.90
19365;DHT22;9818;48.382;10.850;2022-07-23T14:00:43;30.60;99.90
19365;DHT22;9818;48.382;10.850;2022-07-23T14:03:12;30.30;99.90
19365;DHT22;9818;48.382;10.850;2022-07-23T14:05:40;30.60;99.90
19365;DHT22;9818;48.382;10.850;2022-07-23T14:08:09;30.60;99.90
19365;DHT22;9818;48.382;10.850;2022-07-23T14:10:38;31.10;99.90
19365;DHT22;9818;48.382;10.850;2022-07-23T14:13:06;31.80;99.90
19365;DHT22;9818;48.382;10.850;2022-07-23T14:15:35;31.40;99.90
19365;DHT22;9818;48.382;10.850;2022-07-23T14:18:08;31.40;99.90
19365;DHT22;9818;48.382;10.850;2022-07-23T14:20:36;31.50;99.90
19365;DHT22;9818;48.382;10.850;2022-07-23T14:23:05;31.50;99.90
19365;DHT22;9818;48.382;10.850;2022-07-23T14:25:33;30.70;99.90
19365;DHT22;9818;48.382;10.850;2022-07-23T14:28:02;30.70;99.90
19365;DHT22;9818;48.382;10.850;2022-07-23T14:30:30;30.80;99.90
19365;DHT22;9818;48.382;10.850;2022-07-23T14:32:59;30.70;99.90
19365;DHT22;9818;48.382;10.850;2022-07-23T14:35:30;30.20;99.90
19365;DHT22;9818;48.382;10.850;2022-07-23T14:37:58;30.70;99.90
19365;DHT22;9818;48.382;10.850;2022-07-23T14:40:26;30.90;99.90
19365;DHT22;9818;48.382;10.850;2022-07-23T14:42:55;30.80;99.90
19365;DHT22;9818;48.382;10.850;2022-07-23T14:45:24;30.80;99.90
19365;DHT22;9818;48.382;10.850;2022-07-23T14:47:54;30.80;99.90
19365;DHT22;9818;48.382;10.850;2022-07-23T14:50:22;30.70;99.90
19365;DHT22;9818;48.382;10.850;2022-07-23T14:52:53;30.10;99.90
19365;DHT22;9818;48.382;10.850;2022-07-23T14:55:21;29.60;99.90
19365;DHT22;9818;48.382;10.850;2022-07-23T14:57:50;29.40;99.90
19365;DHT22;9818;48.382;10.850;2022-07-23T15:00:18;29.20;99.90
19365;DHT22;9818;48.382;10.850;2022-07-23T15:02:47;29.00;99.90
19365;DHT22;9818;48.382;10.850;2022-07-23T15:05:15;28.80;99.90
19365;DHT22;9818;48.382;10.850;2022-07-23T15:07:44;28.80;99.90
19365;DHT22;9818;48.382;10.850;2022-07-23T15:10:15;28.90;99.90
19365;DHT22;9818;48.382;10.850;2022-07-23T15:12:44;28.60;99.90
19365;DHT22;9818;48.382;10.850;2022-07-23T15:15:12;28.40;99.90
19365;DHT22;9818;48.382;10.850;2022-07-23T15:17:41;28.30;99.90
19365;DHT22;9818;48.382;10.850;2022-07-23T15:20:09;28.10;99.90
19365;DHT22;9818;48.382;10.850;2022-07-23T15:22:38;28.10;99.90
19365;DHT22;9818;48.382;10.850;2022-07-23T15:25:07;28.00;99.90
19365;DHT22;9818;48.382;10.850;2022-07-23T15:27:38;28.00;99.90
19365;DHT22;9818;48.382;10.850;2022-07-23T15:30:08;28.00;99.90
19365;DHT22;9818;48.382;10.850;2022-07-23T15:32:36;27.90;99.90
19365;DHT22;9818;48.382;10.850;2022-07-23T15:35:05;27.70;99.90
19365;DHT22;9818;48.382;10.850;2022-07-23T15:37:34;27.60;99.90
19365;DHT22;9818;48.382;10.850;2022-07-23T15:40:03;27.50;99.90
19365;DHT22;9818;48.382;10.850;2022-07-23T15:42:32;27.60;99.90
19365;DHT22;9818;48.382;10.850;2022-07-23T15:45:03;27.60;99.90
19365;DHT22;9818;48.382;10.850;2022-07-23T15:47:32;27.60;99.90
19365;DHT22;9818;48.382;10.850;2022-07-23T15:50:00;27.60;99.90
19365;DHT22;9818;48.382;10.850;2022-07-23T15:52:29;27.80;99.90
19365;DHT22;9818;48.382;10.850;2022-07-23T15:54:57;28.10;99.90
19365;DHT22;9818;48.382;10.850;2022-07-23T15:57:26;28.40;99.90
19365;DHT22;9818;48.382;10.850;2022-07-23T15:59:54;29.00;99.90
19365;DHT22;9818;48.382;10.850;2022-07-23T16:02:25;29.90;99.90
19365;DHT22;9818;48.382;10.850;2022-07-23T16:04:54;30.70;99.90
19365;DHT22;9818;48.382;10.850;2022-07-23T16:07:23;31.20;99.90
19365;DHT22;9818;48.382;10.850;2022-07-23T16:09:52;31.10;99.90